sensor_id;sensor_type;location;lat;lon;timestamp;P1;durP1;ratioP1;P2;durP2;ratioP2
27558;SDS011;15002;52.028;5.670;2023-07-31T00:00:34;12.73;;;10.85;;
27558;SDS011;15002;52.028;5.670;2023-07-31T00:03:00;14.15;;;10.63;;
27558;SDS011;15002;52.028;5.670;2023-07-31T00:05:25;18.35;;;13.68;;
27558;SDS011;15002;52.028;5.670;2023-07-31T00:07:51;20.42;;;15.00;;
27558;SDS011;15002;52.028;5.670;2023-07-31T00:10:17;13.30;;;10.18;;
27558;SDS011;15002;52.028;5.670;2023-07-31T00:12:43;10.38;;;8.38;;
27558;SDS011;15002;52.028;5.670;2023-07-31T00:15:10;12.90;;;11.43;;
27558;SDS011;15002;52.028;5.670;2023-07-31T00:17:36;14.32;;;12.38;;
27558;SDS011;15002;52.028;5.670;2023-07-31T00:20:02;15.40;;;13.10;;
27558;SDS011;15002;52.028;5.670;2023-07-31T00:22:28;18.40;;;15.27;;
27558;SDS011;15002;52.028;5.670;2023-07-31T00:24:53;19.08;;;14.45;;
27558;SDS011;15002;52.028;5.670;2023-07-31T00:27:19;13.00;;;10.77;;
27558;SDS011;15002;52.028;5.670;2023-07-31T00:29:44;8.85;;;7.40;;
27558;SDS011;15002;52.028;5.670;2023-07-31T00:32:10;6.72;;;5.95;;
27558;SDS011;15002;52.028;5.670;2023-07-31T00:34:36;5.85;;;3.97;;
27558;SDS011;15002;52.028;5.670;2023-07-31T00:37:02;6.10;;;4.20;;
27558;SDS011;15002;52.028;5.670;2023-07-31T00:39:29;6.75;;;4.20;;
27558;SDS011;15002;52.028;5.670;2023-07-31T00:41:55;8.90;;;4.97;;
27558;SDS011;15002;52.028;5.670;2023-07-31T00:44:21;8.73;;;5.18;;
27558;SDS011;15002;52.028;5.670;2023-07-31T00:46:47;12.23;;;5.60;;
27558;SDS011;15002;52.028;5.670;2023-07-31T00:49:13;10.98;;;6.28;;
27558;SDS011;15002;52.028;5.670;2023-07-31T00:51:39;16.60;;;7.07;;
27558;SDS011;15002;52.028;5.670;2023-07-31T00:54:05;22.00;;;8.23;;
27558;SDS011;15002;52.028;5.670;2023-07-31T00:56:31;19.02;;;7.90;;
27558;SDS011;15002;52.028;5.670;2023-07-31T00:58:57;26.75;;;8.00;;
27558;SDS011;15002;52.028;5.670;2023-07-31T01:01:23;31.20;;;9.18;;
27558;SDS011;15002;52.028;5.670;2023-07-31T01:03:49;27.90;;;8.93;;
27558;SDS011;15002;52.028;5.670;2023-07-31T01:06:32;32.72;;;11.00;;
27558;SDS011;15002;52.028;5.670;2023-07-31T01:11:59;27.90;;;9.90;;
27558;SDS011;15002;52.028;5.670;2023-07-31T01:14:27;28.77;;;9.73;;
27558;SDS011;15002;52.028;5.670;2023-07-31T01:16:54;31.42;;;9.60;;
27558;SDS011;15002;52.028;5.670;2023-07-31T01:19:21;31.50;;;9.80;;
27558;SDS011;15002;52.028;5.670;2023-07-31T01:24:54;29.38;;;9.43;;
27558;SDS011;15002;52.028;5.670;2023-07-31T01:27:32;26.48;;;9.77;;
27558;SDS011;15002;52.028;5.670;2023-07-31T01:30:06;26.83;;;8.63;;
27558;SDS011;15002;52.028;5.670;2023-07-31T01:32:39;29.10;;;9.13;;
27558;SDS011;15002;52.028;5.670;2023-07-31T01:35:07;24.30;;;8.30;;
27558;SDS011;15002;52.028;5.670;2023-07-31T01:37:33;23.25;;;8.35;;
27558;SDS011;15002;52.028;5.670;2023-07-31T01:39:59;21.90;;;8.50;;
27558;SDS011;15002;52.028;5.670;2023-07-31T01:42:25;24.48;;;9.13;;
27558;SDS011;15002;52.028;5.670;2023-07-31T01:44:50;27.88;;;9.90;;
27558;SDS011;15002;52.028;5.670;2023-07-31T01:47:16;28.38;;;7.80;;
27558;SDS011;15002;52.028;5.670;2023-07-31T01:49:41;27.13;;;8.88;;
27558;SDS011;15002;52.028;5.670;2023-07-31T01:52:07;26.08;;;8.52;;
27558;SDS011;15002;52.028;5.670;2023-07-31T01:54:33;27.00;;;8.65;;
27558;SDS011;15002;52.028;5.670;2023-07-31T01:56:58;24.92;;;8.55;;
27558;SDS011;15002;52.028;5.670;2023-07-31T01:59:24;25.63;;;9.18;;
27558;SDS011;15002;52.028;5.670;2023-07-31T02:01:49;22.95;;;9.80;;
27558;SDS011;15002;52.028;5.670;2023-07-31T02:04:15;22.55;;;9.25;;
27558;SDS011;15002;52.028;5.670;2023-07-31T02:06:41;27.02;;;9.32;;
27558;SDS011;15002;52.028;5.670;2023-07-31T02:09:06;21.95;;;8.02;;
27558;SDS011;15002;52.028;5.670;2023-07-31T02:11:32;19.52;;;8.07;;
27558;SDS011;15002;52.028;5.670;2023-07-31T02:13:58;18.80;;;7.43;;
27558;SDS011;15002;52.028;5.670;2023-07-31T02:16:23;19.10;;;7.65;;
27558;SDS011;15002;52.028;5.670;2023-07-31T02:18:49;19.13;;;7.63;;
27558;SDS011;15002;52.028;5.670;2023-07-31T02:21:14;17.50;;;6.95;;
27558;SDS011;15002;52.028;5.670;2023-07-31T02:23:40;17.10;;;5.82;;
27558;SDS011;15002;52.028;5.670;2023-07-31T02:26:06;14.40;;;5.57;;
27558;SDS011;15002;52.028;5.670;2023-07-31T02:28:31;15.38;;;4.93;;
27558;SDS011;15002;52.028;5.670;2023-07-31T02:30:57;14.43;;;5.28;;
27558;SDS011;15002;52.028;5.670;2023-07-31T02:33:23;16.60;;;5.80;;
27558;SDS011;15002;52.028;5.670;2023-07-31T02:35:49;15.82;;;6.40;;
27558;SDS011;15002;52.028;5.670;2023-07-31T02:38:14;14.55;;;6.60;;
27558;SDS011;15002;52.028;5.670;2023-07-31T02:40:40;11.45;;;6.10;;
27558;SDS011;15002;52.028;5.670;2023-07-31T02:43:08;20.52;;;7.10;;
27558;SDS011;15002;52.028;5.670;2023-07-31T02:45:34;18.35;;;7.05;;
27558;SDS011;15002;52.028;5.670;2023-07-31T02:48:00;22.23;;;7.65;;
27558;SDS011;15002;52.028;5.670;2023-07-31T02:50:25;19.83;;;7.43;;
27558;SDS011;15002;52.028;5.670;2023-07-31T02:52:52;17.70;;;7.05;;
27558;SDS011;15002;52.028;5.670;2023-07-31T02:55:18;13.60;;;7.15;;
27558;SDS011;15002;52.028;5.670;2023-07-31T02:57:44;18.85;;;7.28;;
27558;SDS011;15002;52.028;5.670;2023-07-31T03:00:09;19.77;;;7.35;;
27558;SDS011;15002;52.028;5.670;2023-07-31T03:02:35;20.48;;;7.53;;
27558;SDS011;15002;52.028;5.670;2023-07-31T03:05:01;21.48;;;8.23;;
27558;SDS011;15002;52.028;5.670;2023-07-31T03:07:26;24.80;;;8.38;;
27558;SDS011;15002;52.028;5.670;2023-07-31T03:09:52;25.35;;;8.07;;
27558;SDS011;15002;52.028;5.670;2023-07-31T03:12:17;20.88;;;7.65;;
27558;SDS011;15002;52.028;5.670;2023-07-31T03:14:44;25.05;;;7.85;;
27558;SDS011;15002;52.028;5.670;2023-07-31T03:17:10;19.20;;;7.85;;
27558;SDS011;15002;52.028;5.670;2023-07-31T03:19:35;22.10;;;8.25;;
27558;SDS011;15002;52.028;5.670;2023-07-31T03:22:01;23.52;;;7.13;;
27558;SDS011;15002;52.028;5.670;2023-07-31T03:24:28;24.88;;;8.55;;
27558;SDS011;15002;52.028;5.670;2023-07-31T03:26:53;25.52;;;8.68;;
27558;SDS011;15002;52.028;5.670;2023-07-31T03:29:19;19.77;;;7.75;;
27558;SDS011;15002;52.028;5.670;2023-07-31T03:31:45;22.75;;;7.70;;
27558;SDS011;15002;52.028;5.670;2023-07-31T03:34:10;18.60;;;7.30;;
27558;SDS011;15002;52.028;5.670;2023-07-31T03:36:36;28.13;;;7.85;;
27558;SDS011;15002;52.028;5.670;2023-07-31T03:39:02;20.85;;;7.25;;
27558;SDS011;15002;52.028;5.670;2023-07-31T03:41:28;23.02;;;7.82;;
27558;SDS011;15002;52.028;5.670;2023-07-31T03:43:54;19.67;;;7.90;;
27558;SDS011;15002;52.028;5.670;2023-07-31T03:46:22;23.30;;;7.70;;
27558;SDS011;15002;52.028;5.670;2023-07-31T03:48:49;18.77;;;7.45;;
27558;SDS011;15002;52.028;5.670;2023-07-31T03:51:15;19.08;;;7.40;;
27558;SDS011;15002;52.028;5.670;2023-07-31T03:53:41;18.60;;;7.05;;
27558;SDS011;15002;52.028;5.670;2023-07-31T03:56:07;18.50;;;7.05;;
27558;SDS011;15002;52.028;5.670;2023-07-31T03:58:32;20.90;;;7.32;;
27558;SDS011;15002;52.028;5.670;2023-07-31T04:00:58;21.80;;;7.30;;
27558;SDS011;15002;52.028;5.670;2023-07-31T04:03:24;19.42;;;6.95;;
27558;SDS011;15002;52.028;5.670;2023-07-31T04:05:49;26.00;;;7.43;;
27558;SDS011;15002;52.028;5.670;2023-07-31T04:08:15;24.20;;;7.55;;
27558;SDS011;15002;52.028;5.670;2023-07-31T04:10:40;20.98;;;7.18;;
27558;SDS011;15002;52.028;5.670;2023-07-31T04:13:06;22.45;;;8.48;;
27558;SDS011;15002;52.028;5.670;2023-07-31T04:15:32;18.02;;;7.30;;
27558;SDS011;15002;52.028;5.670;2023-07-31T04:17:57;20.02;;;7.25;;
27558;SDS011;15002;52.028;5.670;2023-07-31T04:20:23;18.58;;;6.97;;
27558;SDS011;15002;52.028;5.670;2023-07-31T04:22:49;18.30;;;6.63;;
27558;SDS011;15002;52.028;5.670;2023-07-31T04:25:14;21.60;;;7.72;;
27558;SDS011;15002;52.028;5.670;2023-07-31T04:27:40;18.13;;;7.28;;
27558;SDS011;15002;52.028;5.670;2023-07-31T04:30:06;23.77;;;8.35;;
27558;SDS011;15002;52.028;5.670;2023-07-31T04:32:32;18.42;;;7.05;;
27558;SDS011;15002;52.028;5.670;2023-07-31T04:34:57;21.02;;;6.97;;
27558;SDS011;15002;52.028;5.670;2023-07-31T04:37:23;21.83;;;6.97;;
27558;SDS011;15002;52.028;5.670;2023-07-31T04:39:48;18.77;;;6.90;;
27558;SDS011;15002;52.028;5.670;2023-07-31T04:42:14;18.40;;;6.25;;
27558;SDS011;15002;52.028;5.670;2023-07-31T04:44:40;24.30;;;7.28;;
27558;SDS011;15002;52.028;5.670;2023-07-31T04:47:05;18.98;;;6.80;;
27558;SDS011;15002;52.028;5.670;2023-07-31T04:49:31;19.42;;;6.78;;
27558;SDS011;15002;52.028;5.670;2023-07-31T04:51:57;14.90;;;6.47;;
27558;SDS011;15002;52.028;5.670;2023-07-31T04:54:23;25.90;;;6.78;;
27558;SDS011;15002;52.028;5.670;2023-07-31T04:56:49;21.05;;;6.70;;
27558;SDS011;15002;52.028;5.670;2023-07-31T04:59:14;17.33;;;6.72;;
27558;SDS011;15002;52.028;5.670;2023-07-31T05:01:40;13.27;;;5.82;;
27558;SDS011;15002;52.028;5.670;2023-07-31T05:04:05;20.30;;;6.90;;
27558;SDS011;15002;52.028;5.670;2023-07-31T05:06:32;18.45;;;6.60;;
27558;SDS011;15002;52.028;5.670;2023-07-31T05:08:57;17.48;;;6.25;;
27558;SDS011;15002;52.028;5.670;2023-07-31T05:11:23;19.13;;;5.88;;
27558;SDS011;15002;52.028;5.670;2023-07-31T05:13:48;20.08;;;5.40;;
27558;SDS011;15002;52.028;5.670;2023-07-31T05:16:14;19.42;;;6.60;;
27558;SDS011;15002;52.028;5.670;2023-07-31T05:18:40;14.55;;;5.93;;
27558;SDS011;15002;52.028;5.670;2023-07-31T05:21:05;11.93;;;5.32;;
27558;SDS011;15002;52.028;5.670;2023-07-31T05:23:31;22.10;;;6.78;;
27558;SDS011;15002;52.028;5.670;2023-07-31T05:26:07;19.20;;;7.20;;
27558;SDS011;15002;52.028;5.670;2023-07-31T05:28:35;13.15;;;5.85;;
27558;SDS011;15002;52.028;5.670;2023-07-31T05:31:01;16.08;;;6.20;;
27558;SDS011;15002;52.028;5.670;2023-07-31T05:33:28;14.70;;;5.65;;
27558;SDS011;15002;52.028;5.670;2023-07-31T05:35:53;15.02;;;6.65;;
27558;SDS011;15002;52.028;5.670;2023-07-31T05:38:19;16.02;;;6.72;;
27558;SDS011;15002;52.028;5.670;2023-07-31T05:40:45;19.23;;;7.07;;
27558;SDS011;15002;52.028;5.670;2023-07-31T05:43:11;18.33;;;7.10;;
27558;SDS011;15002;52.028;5.670;2023-07-31T05:45:37;16.25;;;6.85;;
27558;SDS011;15002;52.028;5.670;2023-07-31T05:48:03;15.25;;;6.60;;
27558;SDS011;15002;52.028;5.670;2023-07-31T05:50:29;14.70;;;6.85;;
27558;SDS011;15002;52.028;5.670;2023-07-31T05:52:55;15.85;;;6.95;;
27558;SDS011;15002;52.028;5.670;2023-07-31T05:55:20;10.57;;;6.90;;
27558;SDS011;15002;52.028;5.670;2023-07-31T05:57:46;16.33;;;7.63;;
27558;SDS011;15002;52.028;5.670;2023-07-31T06:00:12;12.00;;;6.85;;
27558;SDS011;15002;52.028;5.670;2023-07-31T06:02:38;13.57;;;6.75;;
27558;SDS011;15002;52.028;5.670;2023-07-31T06:05:04;11.73;;;6.40;;
27558;SDS011;15002;52.028;5.670;2023-07-31T06:07:33;14.10;;;7.05;;
27558;SDS011;15002;52.028;5.670;2023-07-31T06:09:59;13.77;;;7.20;;
27558;SDS011;15002;52.028;5.670;2023-07-31T06:12:29;18.20;;;7.97;;
27558;SDS011;15002;52.028;5.670;2023-07-31T06:14:56;14.13;;;7.70;;
27558;SDS011;15002;52.028;5.670;2023-07-31T06:17:22;13.50;;;7.72;;
27558;SDS011;15002;52.028;5.670;2023-07-31T06:19:47;17.10;;;7.95;;
27558;SDS011;15002;52.028;5.670;2023-07-31T06:22:14;11.40;;;6.07;;
27558;SDS011;15002;52.028;5.670;2023-07-31T06:24:39;11.18;;;6.15;;
27558;SDS011;15002;52.028;5.670;2023-07-31T06:27:05;12.35;;;5.50;;
27558;SDS011;15002;52.028;5.670;2023-07-31T06:29:31;11.35;;;5.45;;
27558;SDS011;15002;52.028;5.670;2023-07-31T06:31:57;9.13;;;5.22;;
27558;SDS011;15002;52.028;5.670;2023-07-31T06:34:22;9.75;;;4.88;;
27558;SDS011;15002;52.028;5.670;2023-07-31T06:36:48;10.18;;;5.45;;
27558;SDS011;15002;52.028;5.670;2023-07-31T06:39:14;11.90;;;5.28;;
27558;SDS011;15002;52.028;5.670;2023-07-31T06:41:40;10.30;;;4.80;;
27558;SDS011;15002;52.028;5.670;2023-07-31T06:44:05;12.70;;;5.85;;
27558;SDS011;15002;52.028;5.670;2023-07-31T06:46:31;13.95;;;5.70;;
27558;SDS011;15002;52.028;5.670;2023-07-31T06:48:56;8.45;;;4.35;;
27558;SDS011;15002;52.028;5.670;2023-07-31T06:51:22;10.63;;;5.18;;
27558;SDS011;15002;52.028;5.670;2023-07-31T06:53:48;9.60;;;4.72;;
27558;SDS011;15002;52.028;5.670;2023-07-31T06:56:13;10.77;;;5.60;;
27558;SDS011;15002;52.028;5.670;2023-07-31T06:58:39;7.55;;;4.63;;
27558;SDS011;15002;52.028;5.670;2023-07-31T07:01:05;9.60;;;5.03;;
27558;SDS011;15002;52.028;5.670;2023-07-31T07:03:30;7.97;;;4.53;;
27558;SDS011;15002;52.028;5.670;2023-07-31T07:05:57;7.00;;;4.00;;
27558;SDS011;15002;52.028;5.670;2023-07-31T07:08:29;9.75;;;4.80;;
27558;SDS011;15002;52.028;5.670;2023-07-31T07:10:54;8.68;;;3.72;;
27558;SDS011;15002;52.028;5.670;2023-07-31T07:13:20;7.40;;;3.67;;
27558;SDS011;15002;52.028;5.670;2023-07-31T07:15:49;7.03;;;3.10;;
27558;SDS011;15002;52.028;5.670;2023-07-31T07:18:15;5.18;;;3.15;;
27558;SDS011;15002;52.028;5.670;2023-07-31T07:20:46;4.80;;;2.88;;
27558;SDS011;15002;52.028;5.670;2023-07-31T07:23:15;4.10;;;2.72;;
27558;SDS011;15002;52.028;5.670;2023-07-31T07:25:41;5.68;;;2.58;;
27558;SDS011;15002;52.028;5.670;2023-07-31T07:28:08;5.50;;;2.95;;
27558;SDS011;15002;52.028;5.670;2023-07-31T07:30:34;4.88;;;2.67;;
27558;SDS011;15002;52.028;5.670;2023-07-31T07:32:59;4.78;;;3.08;;
27558;SDS011;15002;52.028;5.670;2023-07-31T07:35:25;3.72;;;2.83;;
27558;SDS011;15002;52.028;5.670;2023-07-31T07:37:51;3.95;;;2.70;;
27558;SDS011;15002;52.028;5.670;2023-07-31T07:40:16;4.63;;;2.80;;
27558;SDS011;15002;52.028;5.670;2023-07-31T07:42:42;4.57;;;3.25;;
27558;SDS011;15002;52.028;5.670;2023-07-31T07:45:08;5.22;;;3.75;;
27558;SDS011;15002;52.028;5.670;2023-07-31T07:47:34;5.60;;;3.75;;
27558;SDS011;15002;52.028;5.670;2023-07-31T07:49:59;4.40;;;3.60;;
27558;SDS011;15002;52.028;5.670;2023-07-31T07:52:25;4.72;;;3.83;;
27558;SDS011;15002;52.028;5.670;2023-07-31T07:54:51;5.07;;;4.35;;
27558;SDS011;15002;52.028;5.670;2023-07-31T07:57:16;5.88;;;4.38;;
27558;SDS011;15002;52.028;5.670;2023-07-31T07:59:42;6.57;;;4.78;;
27558;SDS011;15002;52.028;5.670;2023-07-31T08:02:08;7.47;;;4.60;;
27558;SDS011;15002;52.028;5.670;2023-07-31T08:04:39;8.25;;;4.88;;
27558;SDS011;15002;52.028;5.670;2023-07-31T08:07:05;5.15;;;4.47;;
27558;SDS011;15002;52.028;5.670;2023-07-31T08:09:31;6.15;;;4.53;;
27558;SDS011;15002;52.028;5.670;2023-07-31T08:11:56;8.38;;;4.88;;
27558;SDS011;15002;52.028;5.670;2023-07-31T08:14:27;4.67;;;3.90;;
27558;SDS011;15002;52.028;5.670;2023-07-31T08:16:52;4.50;;;4.10;;
27558;SDS011;15002;52.028;5.670;2023-07-31T08:19:18;4.55;;;4.03;;
27558;SDS011;15002;52.028;5.670;2023-07-31T08:21:44;6.38;;;4.18;;
27558;SDS011;15002;52.028;5.670;2023-07-31T08:24:10;5.45;;;4.20;;
27558;SDS011;15002;52.028;5.670;2023-07-31T08:26:35;6.60;;;3.92;;
27558;SDS011;15002;52.028;5.670;2023-07-31T08:29:01;4.75;;;3.22;;
27558;SDS011;15002;52.028;5.670;2023-07-31T08:31:27;3.60;;;3.30;;
27558;SDS011;15002;52.028;5.670;2023-07-31T08:33:54;4.88;;;4.05;;
27558;SDS011;15002;52.028;5.670;2023-07-31T08:36:19;4.63;;;3.72;;
27558;SDS011;15002;52.028;5.670;2023-07-31T08:38:45;5.82;;;4.05;;
27558;SDS011;15002;52.028;5.670;2023-07-31T08:41:11;4.13;;;3.72;;
27558;SDS011;15002;52.028;5.670;2023-07-31T08:43:38;4.20;;;3.42;;
27558;SDS011;15002;52.028;5.670;2023-07-31T08:46:05;4.03;;;3.72;;
27558;SDS011;15002;52.028;5.670;2023-07-31T08:48:31;4.18;;;3.45;;
27558;SDS011;15002;52.028;5.670;2023-07-31T08:50:58;5.43;;;3.75;;
27558;SDS011;15002;52.028;5.670;2023-07-31T08:53:23;4.70;;;3.92;;
27558;SDS011;15002;52.028;5.670;2023-07-31T08:55:49;3.67;;;3.30;;
27558;SDS011;15002;52.028;5.670;2023-07-31T08:58:19;4.28;;;3.88;;
27558;SDS011;15002;52.028;5.670;2023-07-31T09:00:46;5.30;;;4.63;;
27558;SDS011;15002;52.028;5.670;2023-07-31T09:03:15;10.45;;;7.55;;
27558;SDS011;15002;52.028;5.670;2023-07-31T09:08:10;4.00;;;3.20;;
27558;SDS011;15002;52.028;5.670;2023-07-31T09:10:44;4.30;;;3.22;;
27558;SDS011;15002;52.028;5.670;2023-07-31T09:13:15;3.80;;;3.15;;
27558;SDS011;15002;52.028;5.670;2023-07-31T09:15:42;4.15;;;3.38;;
27558;SDS011;15002;52.028;5.670;2023-07-31T09:18:09;5.85;;;3.60;;
27558;SDS011;15002;52.028;5.670;2023-07-31T09:20:35;4.60;;;4.10;;
27558;SDS011;15002;52.028;5.670;2023-07-31T09:25:33;4.20;;;3.80;;
27558;SDS011;15002;52.028;5.670;2023-07-31T09:30:26;5.38;;;4.47;;
27558;SDS011;15002;52.028;5.670;2023-07-31T09:32:59;5.63;;;5.03;;
27558;SDS011;15002;52.028;5.670;2023-07-31T09:35:30;5.82;;;5.25;;
27558;SDS011;15002;52.028;5.670;2023-07-31T09:37:58;7.95;;;5.90;;
27558;SDS011;15002;52.028;5.670;2023-07-31T09:40:35;6.80;;;6.10;;
27558;SDS011;15002;52.028;5.670;2023-07-31T09:43:11;6.40;;;5.80;;
27558;SDS011;15002;52.028;5.670;2023-07-31T09:45:39;8.00;;;6.40;;
27558;SDS011;15002;52.028;5.670;2023-07-31T09:50:47;8.77;;;7.00;;
27558;SDS011;15002;52.028;5.670;2023-07-31T09:53:14;11.07;;;7.90;;
27558;SDS011;15002;52.028;5.670;2023-07-31T09:55:41;10.32;;;7.60;;
27558;SDS011;15002;52.028;5.670;2023-07-31T09:58:09;10.05;;;7.93;;
27558;SDS011;15002;52.028;5.670;2023-07-31T10:00:36;10.23;;;7.82;;
27558;SDS011;15002;52.028;5.670;2023-07-31T10:03:07;9.25;;;7.88;;
27558;SDS011;15002;52.028;5.670;2023-07-31T10:05:35;10.50;;;7.25;;
27558;SDS011;15002;52.028;5.670;2023-07-31T10:08:05;8.90;;;7.88;;
27558;SDS011;15002;52.028;5.670;2023-07-31T10:10:34;9.88;;;8.85;;
27558;SDS011;15002;52.028;5.670;2023-07-31T10:13:02;9.43;;;7.72;;
27558;SDS011;15002;52.028;5.670;2023-07-31T10:15:30;9.40;;;8.00;;
27558;SDS011;15002;52.028;5.670;2023-07-31T10:17:57;8.65;;;7.75;;
27558;SDS011;15002;52.028;5.670;2023-07-31T10:20:24;10.45;;;8.18;;
27558;SDS011;15002;52.028;5.670;2023-07-31T10:22:51;10.07;;;7.85;;
27558;SDS011;15002;52.028;5.670;2023-07-31T10:25:19;9.02;;;7.93;;
27558;SDS011;15002;52.028;5.670;2023-07-31T10:27:47;9.43;;;7.53;;
27558;SDS011;15002;52.028;5.670;2023-07-31T10:30:15;10.05;;;7.35;;
27558;SDS011;15002;52.028;5.670;2023-07-31T10:32:43;8.55;;;7.65;;
27558;SDS011;15002;52.028;5.670;2023-07-31T10:35:10;12.07;;;8.07;;
27558;SDS011;15002;52.028;5.670;2023-07-31T10:40:05;11.38;;;7.90;;
27558;SDS011;15002;52.028;5.670;2023-07-31T10:42:33;11.77;;;7.85;;
27558;SDS011;15002;52.028;5.670;2023-07-31T10:45:02;9.55;;;7.40;;
27558;SDS011;15002;52.028;5.670;2023-07-31T10:47:29;9.02;;;6.85;;
27558;SDS011;15002;52.028;5.670;2023-07-31T10:50:14;7.93;;;6.82;;
27558;SDS011;15002;52.028;5.670;2023-07-31T10:52:52;7.80;;;7.05;;
27558;SDS011;15002;52.028;5.670;2023-07-31T10:55:24;9.30;;;7.47;;
27558;SDS011;15002;52.028;5.670;2023-07-31T10:58:13;8.02;;;6.78;;
27558;SDS011;15002;52.028;5.670;2023-07-31T11:00:43;8.65;;;6.68;;
27558;SDS011;15002;52.028;5.670;2023-07-31T11:03:10;8.00;;;6.45;;
27558;SDS011;15002;52.028;5.670;2023-07-31T11:05:54;10.35;;;6.28;;
27558;SDS011;15002;52.028;5.670;2023-07-31T11:08:31;8.48;;;5.78;;
27558;SDS011;15002;52.028;5.670;2023-07-31T11:13:26;7.40;;;6.63;;
27558;SDS011;15002;52.028;5.670;2023-07-31T11:15:55;6.68;;;5.82;;
27558;SDS011;15002;52.028;5.670;2023-07-31T11:18:21;6.88;;;6.28;;
27558;SDS011;15002;52.028;5.670;2023-07-31T11:20:46;6.22;;;5.63;;
27558;SDS011;15002;52.028;5.670;2023-07-31T11:23:12;6.50;;;5.65;;
27558;SDS011;15002;52.028;5.670;2023-07-31T11:25:41;6.88;;;6.00;;
27558;SDS011;15002;52.028;5.670;2023-07-31T11:28:13;6.68;;;5.72;;
27558;SDS011;15002;52.028;5.670;2023-07-31T11:30:40;7.93;;;6.15;;
27558;SDS011;15002;52.028;5.670;2023-07-31T11:33:07;7.45;;;6.75;;
27558;SDS011;15002;52.028;5.670;2023-07-31T11:35:35;7.65;;;6.53;;
27558;SDS011;15002;52.028;5.670;2023-07-31T11:38:06;8.65;;;7.05;;
27558;SDS011;15002;52.028;5.670;2023-07-31T11:40:40;8.57;;;6.65;;
27558;SDS011;15002;52.028;5.670;2023-07-31T11:43:07;9.68;;;7.10;;
27558;SDS011;15002;52.028;5.670;2023-07-31T11:45:33;9.68;;;6.30;;
27558;SDS011;15002;52.028;5.670;2023-07-31T11:48:00;7.20;;;6.43;;
27558;SDS011;15002;52.028;5.670;2023-07-31T11:50:26;8.70;;;6.50;;
27558;SDS011;15002;52.028;5.670;2023-07-31T11:52:56;8.30;;;6.50;;
27558;SDS011;15002;52.028;5.670;2023-07-31T11:55:25;6.93;;;6.22;;
27558;SDS011;15002;52.028;5.670;2023-07-31T11:57:52;6.03;;;5.43;;
27558;SDS011;15002;52.028;5.670;2023-07-31T12:00:21;10.27;;;6.10;;
27558;SDS011;15002;52.028;5.670;2023-07-31T12:02:46;8.05;;;6.03;;
27558;SDS011;15002;52.028;5.670;2023-07-31T12:05:14;8.07;;;6.63;;
27558;SDS011;15002;52.028;5.670;2023-07-31T12:07:43;8.40;;;6.03;;
27558;SDS011;15002;52.028;5.670;2023-07-31T12:10:24;7.57;;;6.85;;
27558;SDS011;15002;52.028;5.670;2023-07-31T12:12:56;6.20;;;5.60;;
27558;SDS011;15002;52.028;5.670;2023-07-31T12:18:06;5.28;;;4.78;;
27558;SDS011;15002;52.028;5.670;2023-07-31T12:20:33;5.18;;;4.68;;
27558;SDS011;15002;52.028;5.670;2023-07-31T12:22:59;5.93;;;4.75;;
27558;SDS011;15002;52.028;5.670;2023-07-31T12:25:29;5.43;;;4.57;;
27558;SDS011;15002;52.028;5.670;2023-07-31T12:27:56;6.07;;;4.07;;
27558;SDS011;15002;52.028;5.670;2023-07-31T12:30:28;4.22;;;3.83;;
27558;SDS011;15002;52.028;5.670;2023-07-31T12:32:57;7.28;;;4.30;;
27558;SDS011;15002;52.028;5.670;2023-07-31T12:35:34;4.18;;;3.85;;
27558;SDS011;15002;52.028;5.670;2023-07-31T12:38:03;4.75;;;4.30;;
27558;SDS011;15002;52.028;5.670;2023-07-31T12:40:29;5.88;;;4.70;;
27558;SDS011;15002;52.028;5.670;2023-07-31T12:42:55;6.03;;;4.50;;
27558;SDS011;15002;52.028;5.670;2023-07-31T12:45:20;6.22;;;5.35;;
27558;SDS011;15002;52.028;5.670;2023-07-31T12:47:48;8.43;;;5.47;;
27558;SDS011;15002;52.028;5.670;2023-07-31T12:50:13;7.50;;;5.90;;
27558;SDS011;15002;52.028;5.670;2023-07-31T12:52:39;9.13;;;5.70;;
27558;SDS011;15002;52.028;5.670;2023-07-31T12:55:05;6.82;;;6.20;;
27558;SDS011;15002;52.028;5.670;2023-07-31T12:57:30;7.72;;;6.63;;
27558;SDS011;15002;52.028;5.670;2023-07-31T12:59:57;8.05;;;6.63;;
27558;SDS011;15002;52.028;5.670;2023-07-31T13:02:22;7.22;;;6.53;;
27558;SDS011;15002;52.028;5.670;2023-07-31T13:04:49;7.45;;;6.68;;
27558;SDS011;15002;52.028;5.670;2023-07-31T13:07:15;7.40;;;6.53;;
27558;SDS011;15002;52.028;5.670;2023-07-31T13:09:41;8.10;;;7.05;;
27558;SDS011;15002;52.028;5.670;2023-07-31T13:12:07;10.32;;;7.60;;
27558;SDS011;15002;52.028;5.670;2023-07-31T13:14:33;10.23;;;7.75;;
27558;SDS011;15002;52.028;5.670;2023-07-31T13:16:59;7.97;;;7.07;;
27558;SDS011;15002;52.028;5.670;2023-07-31T13:19:24;8.13;;;6.70;;
27558;SDS011;15002;52.028;5.670;2023-07-31T13:21:50;11.18;;;7.72;;
27558;SDS011;15002;52.028;5.670;2023-07-31T13:24:15;8.77;;;6.95;;
27558;SDS011;15002;52.028;5.670;2023-07-31T13:26:41;8.10;;;7.10;;
27558;SDS011;15002;52.028;5.670;2023-07-31T13:29:07;10.57;;;7.35;;
27558;SDS011;15002;52.028;5.670;2023-07-31T13:31:32;7.65;;;6.63;;
27558;SDS011;15002;52.028;5.670;2023-07-31T13:33:58;8.43;;;6.97;;
27558;SDS011;15002;52.028;5.670;2023-07-31T13:36:23;8.18;;;7.22;;
27558;SDS011;15002;52.028;5.670;2023-07-31T13:38:49;8.55;;;6.75;;
27558;SDS011;15002;52.028;5.670;2023-07-31T13:41:15;8.35;;;6.30;;
27558;SDS011;15002;52.028;5.670;2023-07-31T13:43:40;10.50;;;6.53;;
27558;SDS011;15002;52.028;5.670;2023-07-31T13:46:06;7.10;;;6.10;;
27558;SDS011;15002;52.028;5.670;2023-07-31T13:48:35;7.97;;;6.72;;
27558;SDS011;15002;52.028;5.670;2023-07-31T13:51:01;9.57;;;6.22;;
27558;SDS011;15002;52.028;5.670;2023-07-31T13:53:27;8.50;;;6.88;;
27558;SDS011;15002;52.028;5.670;2023-07-31T13:55:52;7.63;;;6.32;;
27558;SDS011;15002;52.028;5.670;2023-07-31T13:58:18;9.23;;;7.00;;
27558;SDS011;15002;52.028;5.670;2023-07-31T14:00:45;8.18;;;7.25;;
27558;SDS011;15002;52.028;5.670;2023-07-31T14:03:10;9.07;;;6.70;;
27558;SDS011;15002;52.028;5.670;2023-07-31T14:05:36;10.55;;;7.65;;
27558;SDS011;15002;52.028;5.670;2023-07-31T14:08:02;11.10;;;7.75;;
27558;SDS011;15002;52.028;5.670;2023-07-31T14:10:28;10.25;;;7.35;;
27558;SDS011;15002;52.028;5.670;2023-07-31T14:12:53;12.82;;;9.15;;
27558;SDS011;15002;52.028;5.670;2023-07-31T14:15:19;10.52;;;7.50;;
27558;SDS011;15002;52.028;5.670;2023-07-31T14:17:45;12.05;;;8.50;;
27558;SDS011;15002;52.028;5.670;2023-07-31T14:20:10;13.32;;;8.85;;
27558;SDS011;15002;52.028;5.670;2023-07-31T14:22:37;10.35;;;8.07;;
27558;SDS011;15002;52.028;5.670;2023-07-31T14:25:03;10.30;;;7.82;;
27558;SDS011;15002;52.028;5.670;2023-07-31T14:27:28;11.80;;;7.90;;
27558;SDS011;15002;52.028;5.670;2023-07-31T14:29:54;11.13;;;7.78;;
27558;SDS011;15002;52.028;5.670;2023-07-31T14:32:20;15.45;;;8.95;;
27558;SDS011;15002;52.028;5.670;2023-07-31T14:34:48;17.17;;;8.43;;
27558;SDS011;15002;52.028;5.670;2023-07-31T14:37:14;9.23;;;7.35;;
27558;SDS011;15002;52.028;5.670;2023-07-31T14:39:39;11.10;;;8.25;;
27558;SDS011;15002;52.028;5.670;2023-07-31T14:42:05;12.50;;;7.40;;
27558;SDS011;15002;52.028;5.670;2023-07-31T14:44:31;10.30;;;6.10;;
27558;SDS011;15002;52.028;5.670;2023-07-31T14:46:56;8.60;;;6.32;;
27558;SDS011;15002;52.028;5.670;2023-07-31T14:49:22;9.68;;;6.93;;
27558;SDS011;15002;52.028;5.670;2023-07-31T14:51:48;12.45;;;6.95;;
27558;SDS011;15002;52.028;5.670;2023-07-31T14:54:13;8.27;;;6.50;;
27558;SDS011;15002;52.028;5.670;2023-07-31T14:56:39;9.63;;;7.25;;
27558;SDS011;15002;52.028;5.670;2023-07-31T14:59:04;9.35;;;6.45;;
27558;SDS011;15002;52.028;5.670;2023-07-31T15:01:30;9.98;;;6.63;;